Time;durP1;ratioP1;P1;durP2;ratioP2;P2;SDS_P1;SDS_P2;PMS_P1;PMS_P2;Temp;Humidity;BMP_temperature;BMP_pressure;BME280_temperature;BME280_humidity;BME280_pressure;Samples;Min_cycle;Max_cycle;Signal;HPM_P1;HPM_P2
2021/06/24 00:00:39;;;;;;;1.83;1.00;;;25.90;44.40;;;;;;4972151;28;20211;-41
2021/06/24 00:03:06;;;;;;;1.30;1.20;;;26.00;44.40;;;;;;4973598;28;20631;-41
2021/06/24 00:05:32;;;;;;;1.30;1.20;;;26.00;44.40;;;;;;4965820;28;20572;-42
2021/06/24 00:07:58;;;;;;;1.52;1.10;;;26.00;44.40;;;;;;4973910;28;20231;-46
2021/06/24 00:10:25;;;;;;;1.55;1.02;;;26.00;44.40;;;;;;4972257;28;20232;-53
2021/06/24 00:12:51;;;;;;;1.13;1.02;;;25.90;44.40;;;;;;4973815;28;20221;-47
2021/06/24 00:15:18;;;;;;;1.40;1.25;;;25.90;44.40;;;;;;4974217;28;20210;-45
2021/06/24 00:17:44;;;;;;;2.25;1.00;;;26.00;44.50;;;;;;4974060;28;20291;-48
2021/06/24 00:20:11;;;;;;;1.52;0.90;;;26.00;44.40;;;;;;4971601;28;20204;-46
2021/06/24 00:22:37;;;;;;;1.30;1.10;;;26.00;44.40;;;;;;4973676;28;20225;-45
2021/06/24 00:25:03;;;;;;;1.10;1.00;;;25.90;44.40;;;;;;4974302;28;20204;-46
2021/06/24 00:27:30;;;;;;;1.48;1.00;;;26.00;44.40;;;;;;4974434;28;20211;-43
2021/06/24 00:29:56;;;;;;;2.05;1.10;;;26.00;44.40;;;;;;4973247;28;20239;-44
2021/06/24 00:32:23;;;;;;;1.90;1.23;;;26.00;44.40;;;;;;4974217;28;20235;-49
2021/06/24 00:34:50;;;;;;;1.25;0.90;;;26.00;44.40;;;;;;4971683;28;20207;-50
2021/06/24 00:37:16;;;;;;;1.05;0.95;;;26.00;44.50;;;;;;4971351;28;20196;-43
2021/06/24 00:39:42;;;;;;;1.60;1.40;;;26.00;44.50;;;;;;4972144;28;20200;-47
2021/06/24 00:42:09;;;;;;;1.38;1.00;;;26.00;44.50;;;;;;4972506;28;20220;-50
2021/06/24 00:44:35;;;;;;;1.20;1.10;;;26.00;44.40;;;;;;4973364;28;20213;-43
2021/06/24 00:47:02;;;;;;;1.35;1.00;;;26.00;44.40;;;;;;4973942;28;20196;-48
2021/06/24 00:49:28;;;;;;;2.22;1.20;;;26.00;44.40;;;;;;4972241;28;20235;-53
2021/06/24 00:51:55;;;;;;;1.15;1.15;;;26.00;44.40;;;;;;4972261;28;20220;-43
2021/06/24 00:54:21;;;;;;;1.30;1.20;;;26.00;44.40;;;;;;4954865;29;20292;-45
2021/06/24 00:56:48;;;;;;;1.38;1.00;;;26.00;44.40;;;;;;4968121;28;20215;-40
2021/06/24 00:59:14;;;;;;;1.08;1.00;;;26.00;44.40;;;;;;4961450;28;20775;-44
2021/06/24 01:01:40;;;;;;;1.38;1.10;;;26.00;44.40;;;;;;4971331;28;20799;-42
2021/06/24 01:04:07;;;;;;;1.05;0.95;;;26.00;44.40;;;;;;4973290;28;20304;-53
2021/06/24 01:06:33;;;;;;;1.20;1.10;;;26.00;44.40;;;;;;4972778;28;20211;-46
2021/06/24 01:09:00;;;;;;;1.00;1.00;;;26.00;44.50;;;;;;4972521;28;20315;-45
2021/06/24 01:11:26;;;;;;;1.40;1.20;;;26.00;44.40;;;;;;4974275;28;20221;-46
2021/06/24 01:13:53;;;;;;;1.10;1.00;;;26.00;44.40;;;;;;4970776;28;20209;-43
2021/06/24 01:16:19;;;;;;;2.15;1.30;;;26.00;44.40;;;;;;4973818;28;20651;-51
2021/06/24 01:18:46;;;;;;;1.10;1.00;;;26.00;44.40;;;;;;4970682;28;20288;-46
2021/06/24 01:21:12;;;;;;;1.25;1.10;;;26.00;44.40;;;;;;4970319;28;20303;-48
2021/06/24 01:23:38;;;;;;;1.27;1.00;;;26.00;44.40;;;;;;4971786;28;20209;-49
2021/06/24 01:26:05;;;;;;;1.05;0.90;;;26.00;44.40;;;;;;4969877;28;20271;-47
2021/06/24 01:28:31;;;;;;;1.30;1.10;;;26.00;44.50;;;;;;4973185;28;20219;-40
2021/06/24 01:30:58;;;;;;;1.30;1.20;;;26.00;44.50;;;;;;4971459;28;20236;-42
2021/06/24 01:33:24;;;;;;;1.35;1.10;;;26.00;44.50;;;;;;4970892;28;20205;-47
2021/06/24 01:35:51;;;;;;;1.40;1.10;;;26.00;44.50;;;;;;4973013;28;20288;-51
2021/06/24 01:38:17;;;;;;;1.55;1.02;;;26.00;44.40;;;;;;4971006;28;20219;-45
2021/06/24 01:40:44;;;;;;;1.25;1.15;;;26.00;44.40;;;;;;4971079;28;20840;-40
2021/06/24 01:43:10;;;;;;;1.05;1.00;;;26.00;44.40;;;;;;4972385;28;20660;-39
2021/06/24 01:45:37;;;;;;;1.92;1.30;;;26.00;44.40;;;;;;4970728;28;20196;-42
2021/06/24 01:48:03;;;;;;;0.82;0.82;;;26.00;44.40;;;;;;4972350;28;20204;-45
2021/06/24 01:50:30;;;;;;;1.30;1.20;;;26.00;44.40;;;;;;4969445;28;20234;-42
2021/06/24 01:52:56;;;;;;;1.20;1.10;;;26.00;44.40;;;;;;4972466;28;20226;-48
2021/06/24 01:55:32;;;;;;;1.15;0.98;;;26.00;44.40;;;;;;4969399;28;20283;-42
2021/06/24 01:57:58;;;;;;;1.58;1.23;;;26.00;44.40;;;;;;4970636;28;20200;-55
2021/06/24 02:00:24;;;;;;;1.17;1.08;;;26.00;44.40;;;;;;4971336;28;20200;-57
2021/06/24 02:02:51;;;;;;;1.00;1.00;;;26.00;44.40;;;;;;4970347;28;20224;-46
2021/06/24 02:05:17;;;;;;;1.05;0.80;;;26.00;44.50;;;;;;4968385;28;20307;-40
2021/06/24 02:07:44;;;;;;;1.10;1.00;;;26.00;44.40;;;;;;4958688;28;20205;-39
2021/06/24 02:10:10;;;;;;;1.23;1.13;;;26.00;44.40;;;;;;4972268;28;20238;-51
2021/06/24 02:12:37;;;;;;;1.85;1.00;;;26.00;44.40;;;;;;4971087;28;20231;-42
2021/06/24 02:15:03;;;;;;;1.60;0.98;;;26.00;44.40;;;;;;4971732;28;20219;-51
2021/06/24 02:17:29;;;;;;;0.90;0.90;;;26.00;44.40;;;;;;4970830;28;20205;-45
2021/06/24 02:19:56;;;;;;;1.30;1.02;;;26.00;44.40;;;;;;4967474;28;20292;-46
2021/06/24 02:22:22;;;;;;;1.00;1.00;;;26.00;44.40;;;;;;4971850;28;20231;-46
2021/06/24 02:24:49;;;;;;;1.40;1.30;;;26.00;44.40;;;;;;4971195;28;20208;-42
2021/06/24 02:27:15;;;;;;;1.02;1.02;;;26.00;44.40;;;;;;4970108;28;20204;-39
2021/06/24 02:29:42;;;;;;;1.55;1.17;;;26.00;44.50;;;;;;4972594;28;20232;-38
2021/06/24 02:32:08;;;;;;;0.95;0.95;;;26.00;44.50;;;;;;4969412;28;20246;-41
2021/06/24 02:34:35;;;;;;;1.20;1.10;;;26.00;44.50;;;;;;4969529;28;20214;-40
2021/06/24 02:37:01;;;;;;;2.30;0.90;;;26.00;44.50;;;;;;4968677;28;20212;-39
2021/06/24 02:39:28;;;;;;;0.95;0.95;;;26.00;44.50;;;;;;4970595;28;20204;-40
2021/06/24 02:41:54;;;;;;;1.05;1.00;;;26.00;44.50;;;;;;4969303;28;20340;-39
2021/06/24 02:44:21;;;;;;;1.83;1.05;;;26.00;44.40;;;;;;4970733;28;20204;-42
2021/06/24 02:46:47;;;;;;;1.40;0.90;;;26.00;44.40;;;;;;4971119;28;20201;-39
2021/06/24 02:49:13;;;;;;;1.10;1.00;;;26.00;44.40;;;;;;4969009;28;20218;-44
2021/06/24 02:51:40;;;;;;;1.20;1.02;;;26.00;44.50;;;;;;4968901;28;20221;-45
2021/06/24 02:54:06;;;;;;;0.90;0.90;;;26.00;44.50;;;;;;4971292;28;20295;-39
2021/06/24 02:56:33;;;;;;;1.42;0.85;;;26.00;44.40;;;;;;4968188;28;20200;-41
2021/06/24 02:58:59;;;;;;;1.38;1.27;;;26.00;44.50;;;;;;4971230;28;20210;-42
2021/06/24 03:01:26;;;;;;;1.38;0.90;;;26.00;44.40;;;;;;4970755;28;20228;-46
2021/06/24 03:03:52;;;;;;;1.00;1.00;;;26.00;44.40;;;;;;4970574;28;20291;-45
2021/06/24 03:06:18;;;;;;;1.30;1.00;;;26.00;44.40;;;;;;4969866;28;20209;-40
2021/06/24 03:08:45;;;;;;;1.15;0.88;;;26.00;44.40;;;;;;4967801;28;20210;-41
2021/06/24 03:11:11;;;;;;;1.10;1.00;;;26.00;44.40;;;;;;4971991;28;20228;-45
2021/06/24 03:13:38;;;;;;;1.15;1.05;;;26.00;44.40;;;;;;4971144;28;20209;-44
2021/06/24 03:16:04;;;;;;;1.33;1.00;;;26.00;44.40;;;;;;4969711;28;20204;-48
2021/06/24 03:18:31;;;;;;;1.00;1.00;;;26.00;44.40;;;;;;4971145;28;20636;-42
2021/06/24 03:20:57;;;;;;;1.10;1.00;;;26.00;44.40;;;;;;4961253;28;20307;-39
2021/06/24 03:23:24;;;;;;;0.98;0.98;;;26.00;44.50;;;;;;4957329;28;20211;-42
2021/06/24 03:25:52;;;;;;;1.55;1.10;;;26.00;44.50;;;;;;4970904;28;20295;-42
2021/06/24 03:28:18;;;;;;;1.25;0.93;;;26.00;44.40;;;;;;4971709;28;20204;-39
2021/06/24 03:30:45;;;;;;;1.70;1.20;;;26.00;44.40;;;;;;4965658;28;20232;-41
2021/06/24 03:33:11;;;;;;;0.80;0.80;;;26.00;44.40;;;;;;4971683;28;20283;-49
2021/06/24 03:35:38;;;;;;;1.38;0.88;;;26.00;44.40;;;;;;4969615;28;20200;-44
2021/06/24 03:38:04;;;;;;;0.95;0.95;;;26.00;44.40;;;;;;4970559;28;20296;-44
2021/06/24 03:40:30;;;;;;;1.10;1.00;;;26.00;44.40;;;;;;4970752;28;20566;-39
2021/06/24 03:42:57;;;;;;;1.60;0.90;;;26.00;44.40;;;;;;4971402;28;20523;-45
2021/06/24 03:45:23;;;;;;;0.80;0.77;;;26.00;44.40;;;;;;4969890;28;20669;-40
2021/06/24 03:47:50;;;;;;;1.65;0.90;;;26.00;44.40;;;;;;4969798;28;20655;-38
2021/06/24 03:50:16;;;;;;;1.95;1.27;;;26.00;44.40;;;;;;4968752;28;20703;-38
2021/06/24 03:52:43;;;;;;;1.10;0.80;;;26.00;44.40;;;;;;4968485;28;20291;-39
2021/06/24 03:55:09;;;;;;;0.88;0.75;;;26.00;44.40;;;;;;4974744;28;20573;-38
2021/06/24 03:57:35;;;;;;;1.05;0.88;;;26.00;44.40;;;;;;4973709;28;20208;-39
2021/06/24 04:00:02;;;;;;;0.80;0.80;;;26.00;44.40;;;;;;4974521;28;20212;-38
2021/06/24 04:02:28;;;;;;;1.20;0.98;;;26.00;44.40;;;;;;4973326;28;20250;-47
2021/06/24 04:04:55;;;;;;;1.17;0.93;;;26.00;44.40;;;;;;4974537;28;20217;-41
2021/06/24 04:07:22;;;;;;;0.98;0.98;;;26.00;44.50;;;;;;4970264;28;20231;-39
2021/06/24 04:09:49;;;;;;;0.98;0.98;;;26.00;44.50;;;;;;4963616;28;20228;-42
2021/06/24 04:12:15;;;;;;;1.10;1.00;;;26.00;44.40;;;;;;4968701;28;20221;-39
2021/06/24 04:14:42;;;;;;;0.70;0.70;;;26.00;44.40;;;;;;4974132;28;20227;-38
2021/06/24 04:17:08;;;;;;;1.00;0.90;;;26.00;44.40;;;;;;4973295;28;20664;-39
2021/06/24 04:19:34;;;;;;;1.27;0.90;;;26.00;44.50;;;;;;4966995;28;20631;-38
2021/06/24 04:22:01;;;;;;;1.33;0.80;;;26.00;44.40;;;;;;4974361;28;20585;-39
2021/06/24 04:24:27;;;;;;;1.08;0.98;;;26.00;44.40;;;;;;4970159;28;20219;-39
2021/06/24 04:26:54;;;;;;;0.90;0.90;;;26.00;45.20;;;;;;4973821;28;20200;-39
2021/06/24 04:29:20;;;;;;;1.63;0.90;;;26.00;44.50;;;;;;4972978;28;20206;-39
2021/06/24 04:31:47;;;;;;;1.65;1.10;;;26.00;44.50;;;;;;4972871;28;20239;-41
2021/06/24 04:34:13;;;;;;;1.90;0.80;;;26.00;44.50;;;;;;4973619;28;20205;-39
2021/06/24 04:36:43;;;;;;;1.10;1.00;;;26.00;44.50;;;;;;4971511;28;20230;-40
2021/06/24 04:39:10;;;;;;;1.70;1.10;;;26.00;44.50;;;;;;4973196;28;20620;-39
2021/06/24 04:41:36;;;;;;;2.15;1.17;;;26.00;44.40;;;;;;4973604;28;20228;-39
2021/06/24 04:44:03;;;;;;;1.95;1.00;;;26.00;44.40;;;;;;4970479;28;20205;-38
2021/06/24 04:46:29;;;;;;;0.85;0.85;;;26.00;44.50;;;;;;4973556;28;20197;-43
2021/06/24 04:48:55;;;;;;;1.33;1.00;;;26.00;44.50;;;;;;4973248;28;20204;-39
2021/06/24 04:51:22;;;;;;;1.27;1.10;;;26.00;44.50;;;;;;4972484;28;20378;-44
2021/06/24 04:53:48;;;;;;;1.27;0.80;;;26.00;44.40;;;;;;4972712;28;20201;-38
2021/06/24 04:56:15;;;;;;;1.20;0.90;;;26.00;44.40;;;;;;4971722;28;20208;-45
2021/06/24 04:58:42;;;;;;;1.52;1.00;;;26.00;44.40;;;;;;4974130;28;20240;-46
2021/06/24 05:01:08;;;;;;;1.75;1.15;;;26.00;44.40;;;;;;4970199;28;20220;-47
2021/06/24 05:03:34;;;;;;;0.90;0.90;;;26.00;44.40;;;;;;4971963;28;20207;-43
2021/06/24 05:06:03;;;;;;;1.15;0.80;;;26.00;44.40;;;;;;4971054;28;20215;-41
2021/06/24 05:08:32;;;;;;;0.95;0.80;;;26.00;44.40;;;;;;4972942;28;20252;-47
2021/06/24 05:10:59;;;;;;;0.90;0.90;;;26.00;44.40;;;;;;4972079;28;20236;-39
2021/06/24 05:13:25;;;;;;;0.90;0.90;;;26.00;44.40;;;;;;4971206;28;20212;-42
2021/06/24 05:15:51;;;;;;;0.90;0.82;;;26.00;44.50;;;;;;4972950;28;20223;-42
2021/06/24 05:18:18;;;;;;;0.80;0.80;;;26.10;44.60;;;;;;4972951;28;20203;-41
2021/06/24 05:20:44;;;;;;;1.13;1.02;;;26.10;44.60;;;;;;4971452;28;20311;-44
2021/06/24 05:23:11;;;;;;;1.17;1.00;;;26.00;44.40;;;;;;4972539;28;20200;-38
2021/06/24 05:25:39;;;;;;;1.10;0.88;;;26.00;44.40;;;;;;4972942;28;20204;-41
2021/06/24 05:28:05;;;;;;;1.48;0.80;;;26.00;44.40;;;;;;4971670;28;20688;-40
2021/06/24 05:30:32;;;;;;;1.00;0.90;;;26.00;44.40;;;;;;4968451;28;20707;-38
2021/06/24 05:32:58;;;;;;;2.15;1.08;;;26.00;44.40;;;;;;4967842;28;20204;-41
2021/06/24 05:35:25;;;;;;;1.83;0.90;;;26.00;43.90;;;;;;4971618;28;20207;-41
2021/06/24 05:37:51;;;;;;;1.33;1.00;;;25.70;44.20;;;;;;4969694;28;20291;-44
2021/06/24 05:40:18;;;;;;;2.65;1.83;;;25.80;44.30;;;;;;4972048;28;20205;-44
2021/06/24 05:42:44;;;;;;;2.67;1.33;;;25.90;43.90;;;;;;4972850;28;20701;-39
2021/06/24 05:45:11;;;;;;;2.20;1.58;;;25.90;43.60;;;;;;4967622;28;20573;-43
2021/06/24 05:47:37;;;;;;;5.22;1.50;;;25.80;43.90;;;;;;4963397;28;20577;-44
2021/06/24 05:50:04;;;;;;;3.88;1.48;;;25.70;44.90;;;;;;4964043;28;20213;-42
2021/06/24 05:52:30;;;;;;;2.72;1.27;;;25.50;44.10;;;;;;4972578;28;20210;-50
2021/06/24 05:54:56;;;;;;;6.07;1.38;;;25.40;45.40;;;;;;4971555;28;20201;-49
2021/06/24 05:57:23;;;;;;;3.50;1.15;;;25.20;44.30;;;;;;4970085;28;20210;-41
2021/06/24 05:59:50;;;;;;;5.47;1.95;;;25.00;44.70;;;;;;4973164;28;20212;-42
2021/06/24 06:02:16;;;;;;;4.72;1.55;;;24.90;45.70;;;;;;4971667;28;20307;-41
2021/06/24 06:04:43;;;;;;;4.38;1.70;;;24.80;46.30;;;;;;4971329;28;20207;-40
2021/06/24 06:07:09;;;;;;;4.50;1.60;;;24.90;47.40;;;;;;4971692;28;20203;-45
2021/06/24 06:09:36;;;;;;;7.85;3.03;;;25.00;47.30;;;;;;4973415;28;20220;-44
2021/06/24 06:12:03;;;;;;;6.35;1.83;;;24.80;46.00;;;;;;4970502;28;20244;-47
2021/06/24 06:14:30;;;;;;;2.67;1.02;;;24.00;46.00;;;;;;4970859;28;20220;-38
2021/06/24 06:16:56;;;;;;;2.60;1.10;;;23.30;45.70;;;;;;4972199;28;20204;-43
2021/06/24 06:19:23;;;;;;;1.92;1.00;;;22.80;46.40;;;;;;4970335;28;20205;-41
2021/06/24 06:21:49;;;;;;;2.20;1.00;;;22.30;45.50;;;;;;4970275;28;20224;-37
2021/06/24 06:24:16;;;;;;;1.77;1.00;;;21.80;46.70;;;;;;4971209;28;20214;-47
2021/06/24 06:26:42;;;;;;;1.98;1.45;;;21.80;46.80;;;;;;4971599;28;20211;-54
2021/06/24 06:29:09;;;;;;;1.33;1.20;;;21.80;47.60;;;;;;4970893;28;20658;-38
2021/06/24 06:31:37;;;;;;;1.30;1.20;;;21.60;48.30;;;;;;4967178;28;20240;-38
2021/06/24 06:34:03;;;;;;;2.80;1.35;;;21.70;49.00;;;;;;4967747;28;20204;-41
2021/06/24 06:36:30;;;;;;;2.15;1.70;;;21.50;48.40;;;;;;4972889;28;20304;-40
2021/06/24 06:38:56;;;;;;;2.72;1.70;;;21.20;50.50;;;;;;4967737;28;20200;-45
2021/06/24 06:41:23;;;;;;;1.40;1.30;;;21.20;49.90;;;;;;4970559;28;20228;-43
2021/06/24 06:43:49;;;;;;;1.13;1.10;;;21.00;50.80;;;;;;4971292;28;20199;-44
2021/06/24 06:46:16;;;;;;;1.55;1.40;;;21.70;50.30;;;;;;4969418;28;20214;-41
2021/06/24 06:48:42;;;;;;;2.20;1.25;;;22.30;49.10;;;;;;4973840;28;20207;-40
2021/06/24 06:51:09;;;;;;;2.38;1.42;;;22.50;47.20;;;;;;4970783;28;20644;-44
2021/06/24 06:53:35;;;;;;;3.50;1.60;;;22.50;46.90;;;;;;4972577;28;20215;-44
2021/06/24 06:56:02;;;;;;;1.95;1.42;;;22.50;47.00;;;;;;4970469;28;20279;-44
2021/06/24 06:58:28;;;;;;;1.60;1.50;;;22.50;47.50;;;;;;4970312;28;20235;-39
2021/06/24 07:00:55;;;;;;;1.50;1.40;;;22.50;47.10;;;;;;4970029;28;20733;-44
2021/06/24 07:03:21;;;;;;;1.52;1.42;;;22.60;47.50;;;;;;4970409;28;20631;-41
2021/06/24 07:05:48;;;;;;;1.60;1.50;;;22.70;47.30;;;;;;4971053;28;20588;-41
2021/06/24 07:08:14;;;;;;;2.45;1.88;;;22.70;46.50;;;;;;4968465;28;20208;-47
2021/06/24 07:10:40;;;;;;;2.40;1.67;;;22.80;46.70;;;;;;4971264;28;20224;-52
2021/06/24 07:13:07;;;;;;;1.42;1.33;;;22.90;46.70;;;;;;4970463;28;20204;-41
2021/06/24 07:15:33;;;;;;;1.45;1.35;;;22.90;46.70;;;;;;4968625;28;20577;-43
2021/06/24 07:18:00;;;;;;;1.38;1.27;;;22.90;46.50;;;;;;4971660;28;20293;-45
2021/06/24 07:20:26;;;;;;;1.83;1.40;;;23.00;46.40;;;;;;4970797;28;20232;-42
2021/06/24 07:22:53;;;;;;;3.05;1.90;;;23.10;46.00;;;;;;4970375;28;20236;-41
2021/06/24 07:25:20;;;;;;;1.30;1.20;;;23.10;45.50;;;;;;4971343;28;20216;-39
2021/06/24 07:27:46;;;;;;;2.72;1.23;;;23.00;45.60;;;;;;4972904;28;20207;-42
2021/06/24 07:30:13;;;;;;;2.55;1.30;;;23.10;45.90;;;;;;4991440;28;20232;-38
2021/06/24 07:32:39;;;;;;;2.25;1.17;;;23.40;45.90;;;;;;4974764;28;20238;-38
2021/06/24 07:35:06;;;;;;;1.40;1.30;;;23.40;44.90;;;;;;4974135;28;20208;-38
2021/06/24 07:37:32;;;;;;;1.42;1.27;;;23.50;44.80;;;;;;4975191;28;20291;-43
2021/06/24 07:39:58;;;;;;;1.17;1.08;;;23.70;45.10;;;;;;4974864;28;20553;-38
2021/06/24 07:42:25;;;;;;;1.15;1.02;;;23.70;44.30;;;;;;4974894;28;20541;-42
2021/06/24 07:44:51;;;;;;;2.25;1.20;;;23.60;45.20;;;;;;4975015;28;20239;-43
2021/06/24 07:47:19;;;;;;;1.10;1.00;;;23.50;44.20;;;;;;4974917;28;20201;-40
2021/06/24 07:49:46;;;;;;;1.48;1.33;;;23.40;44.30;;;;;;4974974;28;20237;-43
2021/06/24 07:52:12;;;;;;;1.10;1.00;;;23.50;45.20;;;;;;4974458;28;20236;-39
2021/06/24 07:54:39;;;;;;;1.30;1.20;;;23.50;44.30;;;;;;4975855;28;20209;-39
2021/06/24 07:57:05;;;;;;;1.50;1.40;;;23.50;44.20;;;;;;4972956;28;20291;-40
2021/06/24 07:59:34;;;;;;;2.03;1.30;;;23.60;44.20;;;;;;4974389;28;20200;-45
2021/06/24 08:02:00;;;;;;;2.42;1.80;;;23.70;44.00;;;;;;4973989;28;20208;-44
2021/06/24 08:04:26;;;;;;;1.60;1.50;;;23.70;43.90;;;;;;4974701;28;20444;-40
2021/06/24 08:06:53;;;;;;;2.28;1.50;;;23.50;43.20;;;;;;4974616;28;20572;-43
2021/06/24 08:09:19;;;;;;;2.60;1.40;;;23.60;44.00;;;;;;4974312;28;20303;-48
2021/06/24 08:11:46;;;;;;;1.23;1.13;;;23.70;44.00;;;;;;4974866;28;20246;-38
2021/06/24 08:14:12;;;;;;;1.15;1.15;;;23.80;43.60;;;;;;4963923;28;20215;-37
2021/06/24 08:16:39;;;;;;;1.40;1.30;;;23.80;43.50;;;;;;4973912;28;20585;-38
2021/06/24 08:19:05;;;;;;;2.90;1.67;;;23.70;43.10;;;;;;4972764;28;20283;-42
2021/06/24 08:21:32;;;;;;;2.22;1.15;;;23.80;43.40;;;;;;4975069;28;20212;-40
2021/06/24 08:23:58;;;;;;;1.67;1.50;;;23.80;43.40;;;;;;4970192;28;20642;-46
2021/06/24 08:26:25;;;;;;;2.97;1.50;;;23.90;43.70;;;;;;4973943;28;20231;-42
2021/06/24 08:28:51;;;;;;;1.58;1.38;;;24.00;43.70;;;;;;4972400;28;20295;-43
2021/06/24 08:31:18;;;;;;;1.10;1.00;;;24.20;43.80;;;;;;4971046;28;20242;-43
2021/06/24 08:33:44;;;;;;;1.63;1.52;;;24.30;43.70;;;;;;4975054;28;20196;-39
2021/06/24 08:36:11;;;;;;;1.80;1.17;;;24.20;43.10;;;;;;4972959;28;20643;-41
2021/06/24 08:38:37;;;;;;;1.25;1.13;;;24.20;43.10;;;;;;4970759;28;20618;-41
2021/06/24 08:41:04;;;;;;;2.95;1.55;;;24.10;43.00;;;;;;4971095;28;20688;-38
2021/06/24 08:43:30;;;;;;;1.30;1.20;;;24.00;43.10;;;;;;4970497;28;20564;-39
2021/06/24 08:45:57;;;;;;;1.00;1.00;;;24.10;43.50;;;;;;4972795;28;20665;-39
2021/06/24 08:48:24;;;;;;;1.30;1.20;;;24.20;43.20;;;;;;4973977;28;20201;-42
2021/06/24 08:50:50;;;;;;;2.20;1.20;;;24.30;43.20;;;;;;4972420;28;20244;-39
2021/06/24 08:53:17;;;;;;;2.35;1.20;;;24.40;43.30;;;;;;4971969;28;20208;-39
2021/06/24 08:55:46;;;;;;;2.00;1.13;;;24.40;43.30;;;;;;4967827;28;20205;-43
2021/06/24 08:58:12;;;;;;;1.55;1.45;;;24.50;43.10;;;;;;4972622;28;20196;-40
2021/06/24 09:00:38;;;;;;;1.20;1.10;;;24.50;42.90;;;;;;4979085;28;20234;-41
2021/06/24 09:03:05;;;;;;;1.23;1.10;;;24.60;43.00;;;;;;4964911;28;20219;-39
2021/06/24 09:05:31;;;;;;;1.33;1.23;;;24.60;43.10;;;;;;4972295;28;20214;-41
2021/06/24 09:07:58;;;;;;;0.90;0.90;;;24.60;42.90;;;;;;4972663;28;20211;-43
2021/06/24 09:10:24;;;;;;;3.67;1.13;;;24.70;43.00;;;;;;4974511;28;20231;-39
2021/06/24 09:12:51;;;;;;;3.00;1.20;;;24.70;43.10;;;;;;4971351;28;20224;-44
2021/06/24 09:15:17;;;;;;;1.20;1.10;;;24.70;43.20;;;;;;4972735;28;20802;-45
2021/06/24 09:17:44;;;;;;;1.20;1.10;;;24.80;43.40;;;;;;4971873;28;20661;-40
2021/06/24 09:20:10;;;;;;;1.02;0.95;;;24.80;43.40;;;;;;4972571;28;20585;-39
2021/06/24 09:22:36;;;;;;;0.90;0.90;;;24.90;43.40;;;;;;4969342;28;20582;-44
2021/06/24 09:25:03;;;;;;;2.00;0.90;;;24.90;43.60;;;;;;4960070;28;20570;-49
2021/06/24 09:27:29;;;;;;;1.70;0.95;;;24.90;43.70;;;;;;4965105;28;20579;-41
2021/06/24 09:29:56;;;;;;;1.00;0.90;;;24.90;43.70;;;;;;4964841;28;20276;-43
2021/06/24 09:32:22;;;;;;;2.03;1.20;;;25.00;43.60;;;;;;4968587;28;20233;-46
2021/06/24 09:34:49;;;;;;;1.20;1.10;;;25.00;43.50;;;;;;4972523;28;20295;-46
2021/06/24 09:37:18;;;;;;;1.02;0.93;;;25.00;43.60;;;;;;4972234;28;20204;-49
2021/06/24 09:39:47;;;;;;;2.33;1.13;;;25.00;43.70;;;;;;4963885;28;20228;-46
2021/06/24 09:42:14;;;;;;;1.55;0.90;;;25.00;43.80;;;;;;4973231;28;20326;-40
2021/06/24 09:44:40;;;;;;;3.17;1.05;;;25.10;43.70;;;;;;4971440;28;20201;-45
2021/06/24 09:47:07;;;;;;;0.90;0.88;;;25.10;43.80;;;;;;4972072;28;20234;-41
2021/06/24 09:49:33;;;;;;;1.17;1.08;;;25.10;43.80;;;;;;4972729;28;20307;-40
2021/06/24 09:52:00;;;;;;;1.77;1.17;;;25.10;43.80;;;;;;4972446;28;20216;-40
2021/06/24 09:54:26;;;;;;;2.47;0.93;;;25.10;43.80;;;;;;4973319;28;20212;-47
2021/06/24 09:56:55;;;;;;;1.13;0.90;;;25.20;43.90;;;;;;4971502;28;20255;-45
2021/06/24 09:59:21;;;;;;;1.92;1.00;;;25.20;43.90;;;;;;4973313;28;20623;-41
2021/06/24 10:01:47;;;;;;;1.25;1.10;;;25.20;43.90;;;;;;4972903;28;20205;-39
2021/06/24 10:04:14;;;;;;;1.00;0.90;;;25.20;43.90;;;;;;4978367;28;20683;-44
2021/06/24 10:06:40;;;;;;;1.40;1.30;;;25.20;43.70;;;;;;4971755;28;20632;-41
2021/06/24 10:09:07;;;;;;;1.63;1.15;;;25.20;43.90;;;;;;4971920;28;20708;-39
2021/06/24 10:11:33;;;;;;;1.05;1.00;;;25.20;43.80;;;;;;4972690;28;20677;-40
2021/06/24 10:14:00;;;;;;;1.92;1.00;;;25.20;43.80;;;;;;4973045;28;20629;-42
2021/06/24 10:16:27;;;;;;;1.02;1.00;;;25.20;43.90;;;;;;4972305;28;20506;-42
2021/06/24 10:18:53;;;;;;;1.20;1.10;;;25.30;44.00;;;;;;4972236;28;20216;-41
2021/06/24 10:21:19;;;;;;;0.90;0.90;;;25.30;43.90;;;;;;4971208;28;20208;-40
2021/06/24 10:23:46;;;;;;;1.42;0.88;;;25.30;43.70;;;;;;4972060;28;20673;-40
2021/06/24 10:26:12;;;;;;;0.95;0.90;;;25.30;43.90;;;;;;4987327;28;20645;-43
2021/06/24 10:28:39;;;;;;;1.95;1.08;;;25.30;43.70;;;;;;4972739;28;20212;-43
2021/06/24 10:31:05;;;;;;;1.20;1.10;;;25.30;43.90;;;;;;4971996;28;20213;-41
2021/06/24 10:33:32;;;;;;;1.88;1.15;;;25.40;43.90;;;;;;4972320;28;20279;-47
2021/06/24 10:36:01;;;;;;;1.15;1.05;;;25.40;43.80;;;;;;4972494;28;20207;-39
2021/06/24 10:38:28;;;;;;;1.90;1.20;;;25.40;43.80;;;;;;4972618;28;20219;-40
2021/06/24 10:40:54;;;;;;;1.05;1.00;;;25.40;43.60;;;;;;4971666;28;20212;-43
2021/06/24 10:43:21;;;;;;;1.45;1.10;;;25.40;43.80;;;;;;4972674;28;20209;-45
2021/06/24 10:45:47;;;;;;;1.52;1.10;;;25.40;43.80;;;;;;4971791;28;20630;-42
2021/06/24 10:48:14;;;;;;;0.95;0.93;;;25.40;43.70;;;;;;4972061;28;20208;-41
2021/06/24 10:50:42;;;;;;;0.90;0.90;;;25.50;43.70;;;;;;4964594;28;20224;-42
2021/06/24 10:53:09;;;;;;;1.13;1.02;;;25.50;43.60;;;;;;4971258;28;20266;-42
2021/06/24 10:55:35;;;;;;;0.95;0.90;;;25.50;43.60;;;;;;4970448;28;20216;-39
2021/06/24 10:58:02;;;;;;;1.80;1.10;;;25.50;43.40;;;;;;4971930;28;20247;-40
2021/06/24 11:00:28;;;;;;;2.88;1.20;;;25.50;43.40;;;;;;4971477;28;20307;-39
2021/06/24 11:02:55;;;;;;;1.08;0.98;;;25.50;43.30;;;;;;4971038;28;20331;-46
2021/06/24 11:05:21;;;;;;;1.23;0.93;;;25.50;43.20;;;;;;4971791;28;20205;-47
2021/06/24 11:07:47;;;;;;;2.17;1.10;;;25.50;43.20;;;;;;4971124;28;20211;-42
2021/06/24 11:10:14;;;;;;;1.58;0.98;;;25.50;43.10;;;;;;4970855;28;20233;-44
2021/06/24 11:12:40;;;;;;;1.75;1.00;;;25.60;43.20;;;;;;4971896;28;20223;-40
2021/06/24 11:15:08;;;;;;;0.82;0.82;;;25.50;43.10;;;;;;4971804;28;20203;-39
2021/06/24 11:17:35;;;;;;;1.15;1.00;;;25.60;43.20;;;;;;4971210;28;20200;-46
2021/06/24 11:20:01;;;;;;;1.13;1.02;;;25.50;43.10;;;;;;4971603;28;20244;-44
2021/06/24 11:22:28;;;;;;;0.90;0.90;;;25.50;43.10;;;;;;4971157;28;20204;-51
2021/06/24 11:24:54;;;;;;;1.45;1.20;;;25.50;43.10;;;;;;4971591;28;20208;-39
2021/06/24 11:27:21;;;;;;;2.28;1.15;;;25.60;43.20;;;;;;4970540;28;20228;-41
2021/06/24 11:29:47;;;;;;;1.20;1.10;;;25.50;43.10;;;;;;4971468;28;20303;-45
2021/06/24 11:32:15;;;;;;;1.25;1.08;;;25.60;43.10;;;;;;4971811;28;20279;-42
2021/06/24 11:34:47;;;;;;;1.20;1.10;;;25.60;43.10;;;;;;4972085;28;20204;-48
2021/06/24 11:37:15;;;;;;;6.50;1.35;;;25.60;43.00;;;;;;4970548;28;20201;-39
2021/06/24 11:39:42;;;;;;;1.50;1.20;;;25.50;43.00;;;;;;4970441;28;20228;-39
2021/06/24 11:42:08;;;;;;;1.00;1.00;;;25.50;42.60;;;;;;4971486;28;20291;-39
2021/06/24 11:44:36;;;;;;;1.40;1.30;;;25.50;42.80;;;;;;4972135;28;20214;-42
2021/06/24 11:47:04;;;;;;;1.30;1.02;;;25.50;42.80;;;;;;4971620;28;20227;-39
2021/06/24 12:00:24;;;;;;;2.33;1.20;;;25.50;42.80;;;;;;4970952;28;20719;-39
2021/06/24 12:00:44;;;;;;;1.20;1.00;;;25.60;42.80;;;;;;4971815;28;20195;-39
2021/06/24 12:03:09;;;;;;;1.33;1.23;;;25.60;42.80;;;;;;4971953;28;20208;-41
2021/06/24 12:05:36;;;;;;;1.23;0.90;;;25.60;43.00;;;;;;4965757;28;20663;-39
2021/06/24 12:08:02;;;;;;;1.27;1.17;;;25.60;42.80;;;;;;4971367;28;20207;-44
2021/06/24 12:10:29;;;;;;;1.77;1.30;;;25.60;42.80;;;;;;4970322;28;20216;-42
2021/06/24 12:12:55;;;;;;;1.38;1.27;;;25.60;42.80;;;;;;4969993;28;20278;-41
2021/06/24 12:15:22;;;;;;;1.60;1.17;;;25.60;42.80;;;;;;4972860;28;20201;-39
2021/06/24 12:17:48;;;;;;;1.00;1.00;;;25.60;43.00;;;;;;4973375;28;20300;-45
2021/06/24 12:20:15;;;;;;;1.17;0.98;;;25.60;42.90;;;;;;4972208;28;20237;-41
2021/06/24 12:22:42;;;;;;;1.50;1.20;;;25.60;42.90;;;;;;4973639;28;20227;-41
2021/06/24 12:25:08;;;;;;;1.85;1.20;;;25.60;43.00;;;;;;4975485;28;20230;-39
2021/06/24 12:27:35;;;;;;;1.35;1.20;;;25.60;43.00;;;;;;4973268;28;20223;-42
2021/06/24 12:30:02;;;;;;;1.40;1.27;;;25.60;43.00;;;;;;4973414;28;20240;-42
2021/06/24 12:32:29;;;;;;;1.75;1.10;;;25.60;43.00;;;;;;4974169;28;20656;-39
2021/06/24 12:34:55;;;;;;;1.30;1.20;;;25.70;43.00;;;;;;4971781;28;20292;-39
2021/06/24 12:37:21;;;;;;;1.20;1.00;;;25.70;43.00;;;;;;4972909;28;20197;-39
2021/06/24 12:39:48;;;;;;;1.50;1.30;;;25.70;43.10;;;;;;4973251;28;20225;-39
2021/06/24 12:42:14;;;;;;;1.50;1.40;;;25.70;43.00;;;;;;4969277;28;20219;-41
2021/06/24 12:44:41;;;;;;;3.05;1.88;;;25.60;43.00;;;;;;4973304;28;20205;-40
2021/06/24 12:47:07;;;;;;;1.30;1.20;;;25.70;43.00;;;;;;4973182;28;20204;-42
2021/06/24 12:49:34;;;;;;;1.88;1.33;;;25.70;43.00;;;;;;4972743;28;20227;-40
2021/06/24 12:52:00;;;;;;;1.40;1.30;;;25.60;42.90;;;;;;4973832;28;20235;-43